createdAt,value
2023-05-20T00:01:30.368Z,8.43
2023-05-20T00:03:58.729Z,4.40
2023-05-20T00:06:27.054Z,4.00
2023-05-20T00:08:55.837Z,4.23
2023-05-20T00:11:23.767Z,5.43
2023-05-20T00:13:51.728Z,4.80
2023-05-20T00:16:21.080Z,5.43
2023-05-20T00:18:49.250Z,6.27
2023-05-20T00:21:17.331Z,6.77
2023-05-20T00:23:45.317Z,7.50
2023-05-20T00:26:13.510Z,5.73
2023-05-20T00:28:41.681Z,6.27
2023-05-20T00:31:09.674Z,5.07
2023-05-20T00:33:38.994Z,5.83
2023-05-20T00:36:07.770Z,11.23
2023-05-20T00:38:35.974Z,6.60
2023-05-20T00:41:04.214Z,6.63
2023-05-20T00:43:32.359Z,5.80
2023-05-20T00:46:01.474Z,5.60
2023-05-20T00:48:33.932Z,5.30
2023-05-20T00:51:04.991Z,6.17
2023-05-20T00:53:33.089Z,6.37
2023-05-20T00:56:01.589Z,6.10
2023-05-20T00:58:29.602Z,6.33
2023-05-20T01:00:58.352Z,5.90
2023-05-20T01:03:27.345Z,5.10
2023-05-20T01:05:55.723Z,7.63
2023-05-20T01:08:26.952Z,6.50
2023-05-20T01:11:02.905Z,7.33
2023-05-20T01:13:36.154Z,7.53
2023-05-20T01:16:05.475Z,7.97
2023-05-20T01:18:34.925Z,7.63
2023-05-20T01:21:03.697Z,9.17
2023-05-20T01:23:41.020Z,7.07
2023-05-20T01:26:10.443Z,8.17
2023-05-20T01:28:40.005Z,8.20
2023-05-20T01:31:21.154Z,7.00
2023-05-20T01:33:53.211Z,7.80
2023-05-20T01:36:23.312Z,5.73
2023-05-20T01:38:54.210Z,5.63
2023-05-20T01:41:24.997Z,8.33
2023-05-20T01:43:53.042Z,10.07
2023-05-20T01:46:21.079Z,7.10
2023-05-20T01:48:49.211Z,7.47
2023-05-20T01:51:17.821Z,8.83
2023-05-20T01:53:46.005Z,6.93
2023-05-20T01:56:15.349Z,6.47
2023-05-20T01:58:43.309Z,7.63
2023-05-20T02:01:11.423Z,6.33
2023-05-20T02:03:39.436Z,8.13
2023-05-20T02:06:07.722Z,9.30
2023-05-20T02:08:35.815Z,8.00
2023-05-20T02:11:04.023Z,7.70
2023-05-20T02:13:33.318Z,9.53
2023-05-20T02:16:01.328Z,8.00
2023-05-20T02:18:29.426Z,8.37
2023-05-20T02:20:57.404Z,7.53
2023-05-20T02:23:25.693Z,8.43
2023-05-20T02:25:53.605Z,8.70
2023-05-20T02:28:21.729Z,9.80
2023-05-20T02:30:51.676Z,6.80
2023-05-20T02:33:20.088Z,8.97
2023-05-20T02:35:48.251Z,8.60
2023-05-20T02:38:16.606Z,9.97
2023-05-20T02:40:45.700Z,9.27
2023-05-20T02:43:13.662Z,9.60
2023-05-20T02:45:42.542Z,8.60
2023-05-20T02:48:12.130Z,11.17
2023-05-20T02:50:41.150Z,11.67
2023-05-20T02:53:09.273Z,9.07
2023-05-20T02:55:37.664Z,10.70
2023-05-20T02:58:05.630Z,12.03
2023-05-20T03:00:40.838Z,12.60
2023-05-20T03:03:10.200Z,17.97
2023-05-20T03:05:40.366Z,12.57
2023-05-20T03:08:10.554Z,11.77
2023-05-20T03:10:38.886Z,11.73
2023-05-20T03:13:09.638Z,16.57
2023-05-20T03:15:37.907Z,14.77
2023-05-20T03:18:06.505Z,17.27
2023-05-20T03:20:37.046Z,14.10
2023-05-20T03:23:07.289Z,13.40
2023-05-20T03:25:35.766Z,15.80
2023-05-20T03:28:04.102Z,15.90
2023-05-20T03:30:32.106Z,21.10
2023-05-20T03:33:02.942Z,18.83
2023-05-20T03:35:31.141Z,15.10
2023-05-20T03:38:01.716Z,18.77
2023-05-20T03:40:31.242Z,14.67
2023-05-20T03:42:59.351Z,17.07
2023-05-20T03:45:27.332Z,18.70
2023-05-20T03:47:55.795Z,20.70
2023-05-20T03:50:23.845Z,15.70
2023-05-20T03:52:51.937Z,16.43
2023-05-20T03:55:20.583Z,18.67
2023-05-20T03:57:50.015Z,18.97
2023-05-20T04:00:18.733Z,16.17
2023-05-20T04:02:46.975Z,14.50
2023-05-20T04:05:15.143Z,20.23
2023-05-20T04:07:43.167Z,17.23
2023-05-20T04:10:12.536Z,16.73
2023-05-20T04:12:41.535Z,25.03
2023-05-20T04:15:12.808Z,16.93
2023-05-20T04:17:40.874Z,18.50
2023-05-20T04:20:11.465Z,14.73
2023-05-20T04:22:40.751Z,18.03
2023-05-20T04:25:09.884Z,14.53
2023-05-20T04:27:38.467Z,16.50
2023-05-20T04:30:08.175Z,15.23
2023-05-20T04:32:37.518Z,17.00
2023-05-20T04:35:08.497Z,16.13
2023-05-20T04:37:37.431Z,15.00
2023-05-20T04:40:06.704Z,16.63
2023-05-20T04:42:35.129Z,20.23
2023-05-20T04:45:05.742Z,16.43
2023-05-20T04:47:39.142Z,15.90
2023-05-20T04:50:11.664Z,18.33
2023-05-20T04:52:40.196Z,16.97
2023-05-20T04:55:10.706Z,19.30
2023-05-20T04:57:41.568Z,17.90
2023-05-20T05:00:10.888Z,22.27
2023-05-20T05:02:39.216Z,23.90
2023-05-20T05:05:09.376Z,20.30
2023-05-20T05:07:37.610Z,28.83
2023-05-20T05:10:06.612Z,22.27
2023-05-20T05:12:34.784Z,20.73
2023-05-20T05:15:02.728Z,22.43
2023-05-20T05:17:30.737Z,20.83
2023-05-20T05:19:58.822Z,21.30
2023-05-20T05:22:28.225Z,27.00
2023-05-20T05:24:56.832Z,29.00
2023-05-20T05:27:24.826Z,21.40
2023-05-20T05:29:52.835Z,25.80
2023-05-20T05:32:20.976Z,19.50
2023-05-20T05:34:48.978Z,21.80
2023-05-20T05:37:17.095Z,23.50
2023-05-20T05:39:46.668Z,23.83
2023-05-20T05:42:14.792Z,22.13
2023-05-20T05:44:42.895Z,25.10
2023-05-20T05:47:11.046Z,20.00
2023-05-20T05:49:39.181Z,18.60
2023-05-20T05:52:07.542Z,24.60
2023-05-20T05:54:35.653Z,22.73
2023-05-20T05:57:06.609Z,26.20
2023-05-20T05:59:34.791Z,22.57
2023-05-20T06:02:02.789Z,19.07
2023-05-20T06:04:30.918Z,23.63
2023-05-20T06:06:59.415Z,22.43
2023-05-20T06:09:27.538Z,27.60
2023-05-20T06:11:55.536Z,20.40
2023-05-20T06:14:24.919Z,21.60
2023-05-20T06:16:53.132Z,22.17
2023-05-20T06:19:21.306Z,24.30
2023-05-20T06:21:49.355Z,27.60
2023-05-20T06:24:17.461Z,22.43
2023-05-20T06:26:46.100Z,19.43
2023-05-20T06:29:14.060Z,23.00
2023-05-20T06:31:43.624Z,21.40
2023-05-20T06:34:11.580Z,23.73
2023-05-20T06:36:39.617Z,21.87
2023-05-20T06:39:12.481Z,19.63
2023-05-20T06:41:40.825Z,20.03
2023-05-20T06:44:09.373Z,21.30
2023-05-20T06:46:37.499Z,17.47
2023-05-20T06:49:06.931Z,19.10
2023-05-20T06:51:35.035Z,26.67
2023-05-20T06:54:03.312Z,18.53
2023-05-20T06:56:31.548Z,18.97
2023-05-20T06:58:59.525Z,18.90
2023-05-20T07:01:27.629Z,17.47
2023-05-20T07:03:55.626Z,19.83
2023-05-20T07:06:25.185Z,25.20
2023-05-20T07:08:53.137Z,18.53
2023-05-20T07:11:21.685Z,16.97
2023-05-20T07:13:49.659Z,22.90
2023-05-20T07:16:17.726Z,18.50
2023-05-20T07:18:46.077Z,20.27
2023-05-20T07:21:14.220Z,18.00
2023-05-20T07:23:43.531Z,15.53
2023-05-20T07:26:11.691Z,18.37
2023-05-20T07:28:39.807Z,17.83
2023-05-20T07:31:07.769Z,15.73
2023-05-20T07:33:35.739Z,16.90
2023-05-20T07:36:03.863Z,17.13
2023-05-20T07:38:32.243Z,18.60
2023-05-20T07:41:01.928Z,22.77
2023-05-20T07:43:30.415Z,16.90
2023-05-20T07:45:58.465Z,17.13
2023-05-20T07:48:26.504Z,16.17
2023-05-20T07:50:57.163Z,15.10
2023-05-20T07:53:25.163Z,18.90
2023-05-20T07:55:53.251Z,15.57
2023-05-20T07:58:22.922Z,17.20
2023-05-20T08:00:51.109Z,16.27
2023-05-20T08:03:19.485Z,16.43
2023-05-20T08:05:47.947Z,13.97
2023-05-20T08:08:16.190Z,15.03
2023-05-20T08:10:44.183Z,15.87
2023-05-20T08:13:12.178Z,11.83
2023-05-20T08:15:41.704Z,14.80
2023-05-20T08:18:09.872Z,16.40
2023-05-20T08:20:38.035Z,12.00
2023-05-20T08:23:06.140Z,9.67
2023-05-20T08:25:34.315Z,12.83
2023-05-20T08:28:05.816Z,10.60
2023-05-20T08:30:34.980Z,11.37
2023-05-20T08:33:04.566Z,11.50
2023-05-20T08:35:32.808Z,9.53
2023-05-20T08:38:01.566Z,10.50
2023-05-20T08:40:29.604Z,9.57
2023-05-20T08:42:59.206Z,8.30
2023-05-20T08:45:28.670Z,9.30
2023-05-20T08:47:57.419Z,8.80
2023-05-20T08:50:26.807Z,7.07
2023-05-20T08:52:55.275Z,8.43
2023-05-20T08:55:27.768Z,10.73
2023-05-20T08:57:56.357Z,8.90
2023-05-20T09:00:28.719Z,8.80
2023-05-20T09:03:00.044Z,8.13
2023-05-20T09:05:30.328Z,7.80
2023-05-20T09:08:07.448Z,6.50
2023-05-20T09:10:36.611Z,8.07
2023-05-20T09:13:05.315Z,7.27
2023-05-20T09:15:33.665Z,7.87
2023-05-20T09:20:37.500Z,8.50
2023-05-20T09:23:07.169Z,6.30
2023-05-20T09:25:35.794Z,6.30
2023-05-20T09:28:04.147Z,7.13
2023-05-20T09:30:34.381Z,6.30
2023-05-20T09:33:09.322Z,5.93
2023-05-20T09:35:38.871Z,7.43
2023-05-20T09:38:08.355Z,6.43
2023-05-20T09:40:38.088Z,6.23
2023-05-20T09:43:07.778Z,5.40
2023-05-20T09:45:36.422Z,5.40
2023-05-20T09:48:06.244Z,6.53
2023-05-20T09:50:34.867Z,5.10
2023-05-20T09:53:06.463Z,3.90
2023-05-20T09:55:35.700Z,5.00
2023-05-20T09:58:04.954Z,5.50
2023-05-20T10:00:33.369Z,3.90
2023-05-20T10:03:02.953Z,5.70
2023-05-20T10:05:34.520Z,3.23
2023-05-20T10:08:34.395Z,3.93
2023-05-20T10:11:12.976Z,4.00
2023-05-20T10:14:07.920Z,4.40
2023-05-20T10:16:45.599Z,4.10
2023-05-20T10:19:21.596Z,3.87
2023-05-20T10:21:59.025Z,4.60
2023-05-20T10:24:33.593Z,5.47
2023-05-20T10:27:03.793Z,4.83
2023-05-20T10:29:43.419Z,4.37
2023-05-20T10:32:11.848Z,5.87
2023-05-20T10:34:48.406Z,3.47
2023-05-20T10:37:26.351Z,4.20
2023-05-20T10:40:06.896Z,5.00
2023-05-20T10:42:35.027Z,4.83
2023-05-20T10:45:03.178Z,6.73
2023-05-20T10:47:31.765Z,5.40
2023-05-20T10:50:02.021Z,3.53
2023-05-20T10:52:34.684Z,5.73
2023-05-20T10:55:05.033Z,3.70
2023-05-20T10:57:34.087Z,4.00
2023-05-20T11:00:02.242Z,3.77
2023-05-20T11:02:30.535Z,3.77
2023-05-20T11:04:59.305Z,6.33
2023-05-20T11:07:28.853Z,2.90
2023-05-20T11:09:57.009Z,3.33
2023-05-20T11:12:28.511Z,3.20
2023-05-20T11:14:56.914Z,4.20
2023-05-20T11:17:24.882Z,3.77
2023-05-20T11:19:52.929Z,3.27
2023-05-20T11:22:21.184Z,3.10
2023-05-20T11:24:49.132Z,3.00
2023-05-20T11:27:17.232Z,3.40
2023-05-20T11:29:46.645Z,3.90
2023-05-20T11:32:14.717Z,4.60
2023-05-20T11:34:43.427Z,3.20
2023-05-20T11:37:12.224Z,3.43
2023-05-20T11:39:40.376Z,4.90
2023-05-20T11:42:08.397Z,2.93
2023-05-20T11:44:36.567Z,4.20
2023-05-20T11:47:06.702Z,3.30
2023-05-20T11:49:41.091Z,4.77
2023-05-20T11:52:11.231Z,3.47
2023-05-20T11:54:39.512Z,4.10
2023-05-20T11:57:07.784Z,3.87
2023-05-20T11:59:36.614Z,6.53
2023-05-20T12:02:06.170Z,4.10
2023-05-20T12:04:34.123Z,3.73
2023-05-20T12:07:04.059Z,3.87
2023-05-20T12:09:32.307Z,3.93
2023-05-20T12:12:00.326Z,4.40
2023-05-20T12:14:28.405Z,3.87
2023-05-20T12:16:56.997Z,2.73
2023-05-20T12:19:26.342Z,4.20
2023-05-20T12:21:54.358Z,3.97
2023-05-20T12:24:22.509Z,3.80
2023-05-20T12:26:50.843Z,3.27
2023-05-20T12:29:18.982Z,4.67
2023-05-20T12:31:47.915Z,4.07
2023-05-20T12:34:16.166Z,4.30
2023-05-20T12:36:46.290Z,6.23
2023-05-20T12:39:15.216Z,4.53
2023-05-20T12:41:43.180Z,5.37
2023-05-20T12:44:11.197Z,4.33
2023-05-20T12:46:39.683Z,5.43
2023-05-20T12:49:08.064Z,5.40
2023-05-20T12:51:36.051Z,5.90
2023-05-20T12:54:05.500Z,5.20
2023-05-20T12:56:33.664Z,5.47
2023-05-20T12:59:02.113Z,5.60
2023-05-20T13:01:30.245Z,5.03
2023-05-20T13:03:58.405Z,5.40
2023-05-20T13:06:26.557Z,4.90
2023-05-20T13:08:54.527Z,5.60
2023-05-20T13:11:24.580Z,5.03
2023-05-20T13:13:52.688Z,4.10
2023-05-20T13:16:20.999Z,4.40
2023-05-20T13:18:49.210Z,6.00
2023-05-20T13:21:17.515Z,5.33
2023-05-20T13:23:45.607Z,6.57
2023-05-20T13:26:13.787Z,6.10
2023-05-20T13:28:43.325Z,5.37
2023-05-20T13:31:11.404Z,6.77
2023-05-20T13:33:39.591Z,5.83
2023-05-20T13:36:08.159Z,6.60
2023-05-20T13:38:37.441Z,7.20
2023-05-20T13:41:05.950Z,6.03
2023-05-20T13:43:34.391Z,6.13
2023-05-20T13:46:03.846Z,6.70
2023-05-20T13:48:33.233Z,6.20
2023-05-20T13:51:01.841Z,5.30
2023-05-20T13:53:30.154Z,6.28
2023-05-20T13:55:58.596Z,7.60
2023-05-20T13:58:26.745Z,5.70
2023-05-20T14:00:54.941Z,5.70
2023-05-20T14:03:24.373Z,6.17
2023-05-20T14:05:53.270Z,5.80
2023-05-20T14:08:21.254Z,6.60
2023-05-20T14:10:49.262Z,6.20
2023-05-20T14:13:17.311Z,5.60
2023-05-20T14:15:45.534Z,7.23
2023-05-20T14:18:13.630Z,8.03
2023-05-20T14:20:43.074Z,8.73
2023-05-20T14:23:11.294Z,7.13
2023-05-20T14:25:39.304Z,7.33
2023-05-20T14:28:07.608Z,9.77
2023-05-20T14:30:36.173Z,9.07
2023-05-20T14:33:04.588Z,9.17
2023-05-20T14:35:32.838Z,7.13
2023-05-20T14:38:02.237Z,8.40
2023-05-20T14:40:30.308Z,8.60
2023-05-20T14:42:58.463Z,7.13
2023-05-20T14:45:26.568Z,9.50
2023-05-20T14:47:54.688Z,6.97
2023-05-20T14:50:22.804Z,8.13
2023-05-20T14:52:51.434Z,6.23
2023-05-20T14:55:20.892Z,10.70
2023-05-20T14:57:49.600Z,8.97
2023-05-20T15:00:18.108Z,9.77
2023-05-20T15:02:46.105Z,8.63
2023-05-20T15:05:14.289Z,9.73
2023-05-20T15:07:42.249Z,9.03
2023-05-20T15:10:10.843Z,9.37
2023-05-20T15:12:40.464Z,8.13
2023-05-20T15:15:09.972Z,7.47
2023-05-20T15:17:38.131Z,10.40
2023-05-20T15:20:07.316Z,8.53
2023-05-20T15:22:35.334Z,7.03
2023-05-20T15:25:03.826Z,8.40
2023-05-20T15:27:31.789Z,7.60
2023-05-20T15:30:01.452Z,7.57
2023-05-20T15:32:29.475Z,7.43
2023-05-20T15:34:57.621Z,6.90
2023-05-20T15:37:25.616Z,10.90
2023-05-20T15:39:53.623Z,7.73
2023-05-20T15:42:21.751Z,8.27
2023-05-20T15:44:49.725Z,10.00
2023-05-20T15:47:19.030Z,9.27
2023-05-20T15:49:47.136Z,6.60
2023-05-20T15:52:15.176Z,8.77
2023-05-20T15:54:43.855Z,7.77
2023-05-20T15:57:11.865Z,6.43
2023-05-20T15:59:39.830Z,7.90
2023-05-20T16:02:07.999Z,8.30
2023-05-20T16:04:37.633Z,7.57
2023-05-20T16:07:06.028Z,6.80
2023-05-20T16:09:34.140Z,8.50
2023-05-20T16:12:02.229Z,8.43
2023-05-20T16:14:30.253Z,7.57
2023-05-20T16:16:58.254Z,7.43
2023-05-20T16:19:26.877Z,8.20
2023-05-20T16:21:56.365Z,5.37
2023-05-20T16:24:24.552Z,5.97
2023-05-20T16:26:52.631Z,8.90
2023-05-20T16:29:20.691Z,9.60
2023-05-20T16:31:48.818Z,7.67
2023-05-20T16:34:17.421Z,7.63
2023-05-20T16:36:46.424Z,8.07
2023-05-20T16:39:16.544Z,7.27
2023-05-20T16:41:44.865Z,7.10
2023-05-20T16:44:12.841Z,9.90
2023-05-20T16:46:40.979Z,9.00
2023-05-20T16:49:08.964Z,7.90
2023-05-20T16:51:37.058Z,9.60
2023-05-20T16:54:05.110Z,9.00
2023-05-20T16:56:35.424Z,8.47
2023-05-20T16:59:03.618Z,7.57
2023-05-20T17:01:31.882Z,9.00
2023-05-20T17:04:00.334Z,7.53
2023-05-20T17:06:28.449Z,8.30
2023-05-20T17:08:56.635Z,8.60
2023-05-20T17:11:24.755Z,8.87
2023-05-20T17:13:54.070Z,10.50
2023-05-20T17:16:22.187Z,9.97
2023-05-20T17:18:50.215Z,9.30
2023-05-20T17:21:20.349Z,10.03
2023-05-20T17:23:48.650Z,9.73
2023-05-20T17:26:17.367Z,9.30
2023-05-20T17:28:45.691Z,8.90
2023-05-20T17:31:15.193Z,6.87
2023-05-20T17:33:43.321Z,9.27
2023-05-20T17:36:11.426Z,9.30
2023-05-20T17:38:39.446Z,9.83
2023-05-20T17:41:07.427Z,11.27
2023-05-20T17:43:35.698Z,6.80
2023-05-20T17:46:03.703Z,9.73
2023-05-20T17:48:33.568Z,7.97
2023-05-20T17:51:01.798Z,9.80
2023-05-20T17:53:30.018Z,8.30
2023-05-20T17:55:58.244Z,8.95
2023-05-20T17:58:27.299Z,7.63
2023-05-20T18:00:55.442Z,10.87
2023-05-20T18:03:23.687Z,10.17
2023-05-20T18:05:55.154Z,9.00
2023-05-20T18:08:25.303Z,9.83
2023-05-20T18:10:54.068Z,11.60
2023-05-20T18:13:22.071Z,8.27
2023-05-20T18:15:50.128Z,7.83
2023-05-20T18:18:18.154Z,6.70
2023-05-20T18:20:46.192Z,7.40
2023-05-20T18:23:15.598Z,8.03
2023-05-20T18:25:43.700Z,8.00
2023-05-20T18:28:13.218Z,7.97
2023-05-20T18:30:41.212Z,9.18
2023-05-20T18:33:09.270Z,9.67
2023-05-20T18:35:37.353Z,10.00
2023-05-20T18:38:05.697Z,9.90
2023-05-20T18:40:35.337Z,12.20
2023-05-20T18:43:03.366Z,8.20
2023-05-20T18:45:31.370Z,8.60
2023-05-20T18:48:00.243Z,9.83
2023-05-20T18:50:28.601Z,9.03
2023-05-20T18:52:56.656Z,10.97
2023-05-20T18:55:25.734Z,9.33
2023-05-20T18:57:55.141Z,9.07
2023-05-20T19:00:23.811Z,8.63
2023-05-20T19:02:52.101Z,10.07
2023-05-20T19:05:20.762Z,9.07
2023-05-20T19:07:48.791Z,12.70
2023-05-20T19:10:16.720Z,11.03
2023-05-20T19:12:44.849Z,10.60
2023-05-20T19:15:15.779Z,10.87
2023-05-20T19:17:43.813Z,11.50
2023-05-20T19:20:13.963Z,8.03
2023-05-20T19:22:42.035Z,10.80
2023-05-20T19:25:10.562Z,10.93
2023-05-20T19:27:38.492Z,10.83
2023-05-20T19:30:09.895Z,10.80
2023-05-20T19:32:40.444Z,10.30
2023-05-20T19:35:09.321Z,9.03
2023-05-20T19:37:37.433Z,8.83
2023-05-20T19:40:06.950Z,9.57
2023-05-20T19:42:34.941Z,10.87
2023-05-20T19:45:03.121Z,10.80
2023-05-20T19:47:31.255Z,10.10
2023-05-20T19:50:00.782Z,10.40
2023-05-20T19:52:28.787Z,11.03
2023-05-20T19:54:57.048Z,9.70
2023-05-20T19:57:25.232Z,9.83
2023-05-20T19:59:53.872Z,10.30
2023-05-20T20:02:22.106Z,8.40
2023-05-20T20:04:51.693Z,9.07
2023-05-20T20:07:21.019Z,9.23
2023-05-20T20:09:51.573Z,9.70
2023-05-20T20:12:19.552Z,11.37
2023-05-20T20:14:47.589Z,9.97
2023-05-20T20:17:17.575Z,10.30
2023-05-20T20:19:48.130Z,11.30
2023-05-20T20:22:16.508Z,12.17
2023-05-20T20:24:45.979Z,9.75
2023-05-20T20:27:14.340Z,8.77
2023-05-20T20:29:42.888Z,11.73
2023-05-20T20:32:11.795Z,10.87
2023-05-20T20:34:39.907Z,11.50
2023-05-20T20:37:08.041Z,10.17
2023-05-20T20:39:37.223Z,14.40
2023-05-20T20:42:07.130Z,11.53
2023-05-20T20:44:35.378Z,12.70
2023-05-20T20:47:04.696Z,10.70
2023-05-20T20:49:33.406Z,10.43
2023-05-20T20:52:01.632Z,11.03
2023-05-20T20:54:29.587Z,13.83
2023-05-20T20:57:00.027Z,11.10
2023-05-20T20:59:30.269Z,11.37
2023-05-20T21:01:58.573Z,10.47
2023-05-20T21:04:27.816Z,10.70
2023-05-20T21:06:55.999Z,12.37
2023-05-20T21:09:24.119Z,9.53
2023-05-20T21:11:52.073Z,12.53
2023-05-20T21:14:20.221Z,9.20
2023-05-20T21:16:49.741Z,11.43
2023-05-20T21:19:17.885Z,9.10
2023-05-20T21:21:46.029Z,8.73
2023-05-20T21:24:14.015Z,15.13
2023-05-20T21:26:42.139Z,11.60
2023-05-20T21:29:11.935Z,10.10
2023-05-20T21:31:39.948Z,11.60
2023-05-20T21:34:09.436Z,11.20
2023-05-20T21:36:37.381Z,10.70
2023-05-20T21:39:05.564Z,8.10
2023-05-20T21:41:33.753Z,8.80
2023-05-20T21:44:01.819Z,9.70
2023-05-20T21:46:29.864Z,7.80
2023-05-20T21:48:57.964Z,8.43
2023-05-20T21:51:27.395Z,11.70
2023-05-20T21:53:55.485Z,11.97
2023-05-20T21:56:23.490Z,10.37
2023-05-20T21:58:51.470Z,9.40
2023-05-20T22:01:19.650Z,12.40
2023-05-20T22:03:50.995Z,10.93
2023-05-20T22:06:21.474Z,8.67
2023-05-20T22:08:51.385Z,9.70
2023-05-20T22:11:19.796Z,13.07
2023-05-20T22:13:48.002Z,13.50
2023-05-20T22:16:16.748Z,12.67
2023-05-20T22:18:48.057Z,11.47
2023-05-20T22:21:16.674Z,10.80
2023-05-20T22:23:44.736Z,9.97
2023-05-20T22:26:14.438Z,13.13
2023-05-20T22:28:42.434Z,9.00
2023-05-20T22:31:10.801Z,8.47
2023-05-20T22:33:41.391Z,10.40
2023-05-20T22:36:09.688Z,9.90
2023-05-20T22:38:37.965Z,10.50
2023-05-20T22:41:05.951Z,12.67
2023-05-20T22:43:36.533Z,8.70
2023-05-20T22:46:04.615Z,12.17
2023-05-20T22:48:32.576Z,12.53
2023-05-20T22:51:01.564Z,10.10
2023-05-20T22:53:29.525Z,10.67
2023-05-20T22:55:59.806Z,8.83
2023-05-20T22:58:29.674Z,11.50
2023-05-20T23:00:59.525Z,11.03
2023-05-20T23:03:27.683Z,8.87
2023-05-20T23:05:55.798Z,10.30
2023-05-20T23:08:23.718Z,10.13
2023-05-20T23:10:51.935Z,8.20
2023-05-20T23:13:19.961Z,8.27
2023-05-20T23:15:48.243Z,7.63
2023-05-20T23:18:18.007Z,8.30
2023-05-20T23:20:46.348Z,8.40
2023-05-20T23:23:14.386Z,8.60
2023-05-20T23:25:45.055Z,9.73
2023-05-20T23:28:13.771Z,8.97
2023-05-20T23:30:41.740Z,8.60
2023-05-20T23:33:09.877Z,8.50
2023-05-20T23:35:39.633Z,11.17
2023-05-20T23:38:07.664Z,9.87
2023-05-20T23:40:35.594Z,8.50
2023-05-20T23:43:03.643Z,7.37
2023-05-20T23:45:31.636Z,10.40
2023-05-20T23:48:01.155Z,8.57
2023-05-20T23:50:29.190Z,9.33
2023-05-20T23:52:58.619Z,11.13
2023-05-20T23:55:28.385Z,8.37
2023-05-20T23:57:56.558Z,8.90
